LFPG/CDG METAR and TAF weather

Enter ICAO airport designator
Station Type Date Time Source
LFPG METAR 2018/12/10 12:30 UTC NOAA

LFPG 101230Z 29010KT 9999 FEW019 SCT045 09/05 Q1027 NOSIG


Station Type Date Time Source
LFPG Decoded METAR 2018/12/10 12:30 UTC NOAA

Paris-Aeroport Charles De Gaulle, France (LFPG) 49-01N 002-32E 109M
Dec 10, 2018 - 07:30 AM EST / 2018.12.10 1230 UTC
Wind: from the WNW (290 degrees) at 12 MPH (10 KT):0
Visibility: greater than 7 mile(s):0
Sky conditions: partly cloudy
Temperature: 48 F (9 C)
Dew Point: 41 F (5 C)
Relative Humidity: 75%
Pressure (altimeter): 30.33 in. Hg (1027 hPa)
ob: LFPG 101230Z 29010KT 9999 FEW019 SCT045 09/05 Q1027 NOSIG
cycle: 12

Station Type Date Time Source
LFPG TAF 2018/12/10 12:34 UTC NOAA

TAF
AMD LFPG 101213Z 1012/1118 26008KT 9999 SCT020 BKN030 TX09/1013Z TN04/1107Z PROB40
TEMPO 1012/1016 4000 -SHRA BKN014 SCT020TCU
BECMG 1023/1101 3000 BR BKN020 PROB30
TEMPO 1103/1108 0800 BCFG BKN006
TEMPO 1108/1111 VRB03KT
BECMG 1111/1112 09010KT PROB30
TEMPO 1108/1110 BKN006
BECMG 1109/1111 9999 BKN012
BECMG 1112/1114 BKN020


Example: see airport list